N226SB LFRD-LFRN
Flight info
| Callsign | N226SB |
|---|---|
| Flight time | 0h 20m |
| Altitude | 3500 |
| Route | REN |
| Aircraft | S22T/L-SDGRY/S |
Departure
| Time | 2026-04-15 12:14 |
|---|---|
| Airport | Dinard Pleurtuit Saint-Malo airport (LFRD) |
Arrival
| Time | 2026-04-15 12:34 |
|---|---|
| Airport | Rennes-Saint-Jacques Airport (LFRN) |
| Time | Latitude | Longitude | Altitude | Speed | Heading |
|---|---|---|---|---|---|
| 2026-04-15 12:03 | 48.58696 | -2.07243 | 213 ft | 0 kts | 21° |
| 2026-04-15 12:04 | 48.58696 | -2.07242 | 213 ft | 0 kts | 21° |
| 2026-04-15 12:04 | 48.58696 | -2.07243 | 213 ft | 0 kts | 21° |
| 2026-04-15 12:05 | 48.58696 | -2.07242 | 213 ft | 0 kts | 21° |
| 2026-04-15 12:05 | 48.58696 | -2.07243 | 213 ft | 0 kts | 21° |
| 2026-04-15 12:06 | 48.58696 | -2.07242 | 213 ft | 0 kts | 21° |
| 2026-04-15 12:06 | 48.58696 | -2.07243 | 213 ft | 0 kts | 21° |
| 2026-04-15 12:06 | 48.58696 | -2.07242 | 213 ft | 0 kts | 21° |
| 2026-04-15 12:08 | 48.58697 | -2.07242 | 213 ft | 1 kts | 17° |
| 2026-04-15 12:09 | 48.58674 | -2.07296 | 213 ft | 10 kts | 208° |
| 2026-04-15 12:09 | 48.58648 | -2.07316 | 213 ft | 0 kts | 206° |
| 2026-04-15 12:11 | 48.58577 | -2.07417 | 213 ft | 15 kts | 265° |
| 2026-04-15 12:11 | 48.58636 | -2.07626 | 213 ft | 36 kts | 302° |
| 2026-04-15 12:11 | 48.58781 | -2.07974 | 204 ft | 38 kts | 324° |
| 2026-04-15 12:12 | 48.59083 | -2.08077 | 201 ft | 49 kts | 351° |
| 2026-04-15 12:12 | 48.59412 | -2.08150 | 199 ft | 47 kts | 350° |
| 2026-04-15 12:12 | 48.59729 | -2.08224 | 196 ft | 39 kts | 360° |
| 2026-04-15 12:12 | 48.59796 | -2.08267 | 198 ft | 9 kts | 173° |
| 2026-04-15 12:13 | 48.59787 | -2.08265 | 195 ft | 1 kts | 176° |
| 2026-04-15 12:13 | 48.59702 | -2.08245 | 203 ft | 46 kts | 172° |
| 2026-04-15 12:13 | 48.59236 | -2.08081 | 364 ft | 79 kts | 176° |
| 2026-04-15 12:13 | 48.58654 | -2.07927 | 668 ft | 84 kts | 180° |
| 2026-04-15 12:14 | 48.58101 | -2.07716 | 1108 ft | 83 kts | 178° |
| 2026-04-15 12:14 | 48.57526 | -2.07312 | 1382 ft | 105 kts | 162° |
| 2026-04-15 12:14 | 48.56909 | -2.06672 | 1796 ft | 102 kts | 157° |
| 2026-04-15 12:14 | 48.56324 | -2.05971 | 2198 ft | 113 kts | 156° |
| 2026-04-15 12:15 | 48.55742 | -2.05197 | 2745 ft | 112 kts | 150° |
| 2026-04-15 12:15 | 48.55278 | -2.04101 | 3118 ft | 121 kts | 151° |
| 2026-04-15 12:15 | 48.54645 | -2.03504 | 3718 ft | 100 kts | 168° |
| 2026-04-15 12:15 | 48.53991 | -2.02979 | 4096 ft | 111 kts | 167° |
| 2026-04-15 12:16 | 48.53336 | -2.02453 | 4659 ft | 107 kts | 166° |
| 2026-04-15 12:16 | 48.52643 | -2.01927 | 5094 ft | 112 kts | 166° |
| 2026-04-15 12:16 | 48.51948 | -2.01376 | 5576 ft | 116 kts | 165° |
| 2026-04-15 12:16 | 48.51227 | -2.00777 | 6062 ft | 117 kts | 164° |
| 2026-04-15 12:17 | 48.50532 | -2.00159 | 6629 ft | 114 kts | 162° |
| 2026-04-15 12:17 | 48.49795 | -1.99487 | 6939 ft | 135 kts | 162° |
| 2026-04-15 12:17 | 48.48812 | -1.98828 | 6672 ft | 168 kts | 174° |
| 2026-04-15 12:17 | 48.47624 | -1.98606 | 6281 ft | 168 kts | 191° |
| 2026-04-15 12:18 | 48.46437 | -1.98619 | 5562 ft | 179 kts | 183° |
| 2026-04-15 12:18 | 48.45205 | -1.98381 | 5008 ft | 178 kts | 178° |
| 2026-04-15 12:18 | 48.44097 | -1.97924 | 5012 ft | 155 kts | 172° |
| 2026-04-15 12:18 | 48.43151 | -1.97488 | 5094 ft | 135 kts | 176° |
| 2026-04-15 12:19 | 48.42320 | -1.96996 | 5256 ft | 128 kts | 156° |
| 2026-04-15 12:19 | 48.41754 | -1.96222 | 5694 ft | 106 kts | 153° |
| 2026-04-15 12:19 | 48.41176 | -1.95416 | 5684 ft | 119 kts | 153° |
| 2026-04-15 12:19 | 48.40539 | -1.94611 | 5759 ft | 118 kts | 161° |
| 2026-04-15 12:20 | 48.39855 | -1.93969 | 5817 ft | 121 kts | 162° |
| 2026-04-15 12:20 | 48.39104 | -1.93280 | 5857 ft | 138 kts | 161° |
| 2026-04-15 12:20 | 48.38244 | -1.92534 | 6195 ft | 137 kts | 162° |
| 2026-04-15 12:20 | 48.37351 | -1.91776 | 6181 ft | 161 kts | 162° |
| 2026-04-15 12:21 | 48.36421 | -1.91003 | 6760 ft | 133 kts | 162° |
| 2026-04-15 12:21 | 48.35676 | -1.90282 | 7231 ft | 136 kts | 160° |
| 2026-04-15 12:21 | 48.34838 | -1.89472 | 7231 ft | 162 kts | 158° |
| 2026-04-15 12:21 | 48.33815 | -1.88580 | 7243 ft | 168 kts | 160° |
| 2026-04-15 12:22 | 48.32822 | -1.87608 | 7233 ft | 182 kts | 155° |
| 2026-04-15 12:22 | 48.31815 | -1.86512 | 7326 ft | 184 kts | 154° |
| 2026-04-15 12:22 | 48.30766 | -1.85438 | 7338 ft | 183 kts | 159° |
| 2026-04-15 12:22 | 48.29600 | -1.84625 | 7100 ft | 175 kts | 170° |
| 2026-04-15 12:23 | 48.28418 | -1.84104 | 6222 ft | 179 kts | 174° |
| 2026-04-15 12:23 | 48.27195 | -1.83774 | 5418 ft | 169 kts | 184° |
| 2026-04-15 12:23 | 48.26062 | -1.84002 | 4872 ft | 150 kts | 194° |
| 2026-04-15 12:23 | 48.25108 | -1.84117 | 4833 ft | 132 kts | 194° |
| 2026-04-15 12:24 | 48.24210 | -1.84290 | 4812 ft | 128 kts | 193° |
| 2026-04-15 12:24 | 48.23306 | -1.84319 | 4599 ft | 145 kts | 174° |
| 2026-04-15 12:24 | 48.22359 | -1.83728 | 4605 ft | 139 kts | 162° |
| 2026-04-15 12:24 | 48.21526 | -1.82959 | 4487 ft | 144 kts | 159° |
| 2026-04-15 12:25 | 48.20679 | -1.82202 | 4478 ft | 138 kts | 160° |
| 2026-04-15 12:25 | 48.19886 | -1.81518 | 4559 ft | 133 kts | 163° |
| 2026-04-15 12:25 | 48.19063 | -1.80900 | 4736 ft | 133 kts | 164° |
| 2026-04-15 12:25 | 48.18181 | -1.80347 | 4873 ft | 146 kts | 168° |
| 2026-04-15 12:26 | 48.17218 | -1.79741 | 5038 ft | 149 kts | 169° |
| 2026-04-15 12:26 | 48.16225 | -1.79120 | 5099 ft | 160 kts | 165° |
| 2026-04-15 12:26 | 48.15204 | -1.78455 | 5324 ft | 156 kts | 165° |
| 2026-04-15 12:26 | 48.14169 | -1.77715 | 5263 ft | 170 kts | 162° |
| 2026-04-15 12:27 | 48.13090 | -1.76877 | 5193 ft | 175 kts | 161° |
| 2026-04-15 12:27 | 48.12044 | -1.75942 | 5196 ft | 186 kts | 145° |
| 2026-04-15 12:27 | 48.11249 | -1.74431 | 5407 ft | 180 kts | 135° |
| 2026-04-15 12:27 | 48.10562 | -1.72869 | 5502 ft | 187 kts | 126° |
| 2026-04-15 12:28 | 48.10019 | -1.71053 | 5562 ft | 188 kts | 123° |
| 2026-04-15 12:28 | 48.09439 | -1.69315 | 5641 ft | 190 kts | 125° |
| 2026-04-15 12:28 | 48.08931 | -1.67475 | 5805 ft | 191 kts | 116° |
| 2026-04-15 12:28 | 48.08535 | -1.65593 | 5899 ft | 195 kts | 113° |
| 2026-04-15 12:29 | 48.08246 | -1.63593 | 6040 ft | 195 kts | 109° |
| 2026-04-15 12:29 | 48.08022 | -1.61575 | 6152 ft | 201 kts | 100° |
| 2026-04-15 12:29 | 48.07974 | -1.59430 | 6087 ft | 210 kts | 97° |
| 2026-04-15 12:29 | 48.07930 | -1.57201 | 5826 ft | 221 kts | 96° |
| 2026-04-15 12:30 | 48.07797 | -1.54899 | 5512 ft | 217 kts | 109° |
| 2026-04-15 12:30 | 48.06889 | -1.53561 | 4958 ft | 178 kts | 186° |
| 2026-04-15 12:30 | 48.06521 | -1.54929 | 3705 ft | 194 kts | 292° |
| 2026-04-15 12:30 | 48.06951 | -1.56604 | 3397 ft | 156 kts | 271° |
| 2026-04-15 12:31 | 48.07032 | -1.58092 | 3212 ft | 138 kts | 265° |
| 2026-04-15 12:31 | 48.06969 | -1.59495 | 2871 ft | 137 kts | 256° |
| 2026-04-15 12:31 | 48.06817 | -1.60884 | 2585 ft | 135 kts | 254° |
| 2026-04-15 12:31 | 48.06656 | -1.62273 | 2318 ft | 135 kts | 255° |
| 2026-04-15 12:32 | 48.06517 | -1.63657 | 2107 ft | 136 kts | 258° |
| 2026-04-15 12:32 | 48.06504 | -1.65046 | 1726 ft | 126 kts | 264° |
| 2026-04-15 12:32 | 48.06534 | -1.66299 | 1384 ft | 116 kts | 265° |
| 2026-04-15 12:32 | 48.06610 | -1.67475 | 1101 ft | 112 kts | 268° |
| 2026-04-15 12:33 | 48.06707 | -1.68558 | 863 ft | 99 kts | 265° |
| 2026-04-15 12:33 | 48.06796 | -1.69544 | 629 ft | 86 kts | 269° |
| 2026-04-15 12:33 | 48.06856 | -1.70355 | 437 ft | 74 kts | 267° |
| 2026-04-15 12:33 | 48.06936 | -1.71131 | 319 ft | 77 kts | 266° |
| 2026-04-15 12:34 | 48.07042 | -1.71904 | 196 ft | 73 kts | 263° |
| 2026-04-15 12:34 | 48.07117 | -1.72604 | 128 ft | 63 kts | 261° |
| 2026-04-15 12:34 | 48.07189 | -1.73216 | 101 ft | 55 kts | 268° |
| 2026-04-15 12:34 | 48.07189 | -1.73544 | 100 ft | 24 kts | 220° |
| 2026-04-15 12:35 | 48.07069 | -1.73441 | 106 ft | 28 kts | 106° |
| 2026-04-15 12:35 | 48.07024 | -1.73112 | 110 ft | 31 kts | 105° |
| 2026-04-15 12:35 | 48.06951 | -1.72908 | 115 ft | 19 kts | 142° |
| 2026-04-15 12:35 | 48.06931 | -1.72889 | 115 ft | 0 kts | 153° |